Hamburg, MI (48139)

11:20 AM EST on February 14, 2016 (GMT -0500)
Homestead | | Change Station
CLOSE
Current Station
Personal Weather Station
Location: Whitmore Lake, MI
Elevation: 919 ft
Nearby Weather Stations

Elev 919 ft 42.42 °N, 83.79 °W | Updated 15 seconds ago

Partly Cloudy
Partly Cloudy
16.9 °F
Feels Like 6 °F
N
8.7
Wind Variable Wind from SSE
Gusts 9.8 mph

Today
High -- | Low -- °F
--% Chance of Precip.
Yesterday
High -- | Low -- °F
Precip. -- in
Pressure 30.39 in
Visibility 10.0 miles
Clouds Clear
Windchill 6 °F
Dew Point -10 °F
Humidity 29%
Rainfall 0.00 in
Snow Depth Not available.
7:33 AM 6:05 PM
Waxing Crescent, 43% visible
METAR KOZW 141614Z AUTO 17007KT 10SM CLR M10/M18 A3039 RMK AO2 T11021176
Pressure 30.39 in
Visibility 10.0 miles
Clouds Clear
Windchill 6 °F
Dew Point -10 °F
Humidity 29%
Rainfall 0.00 in
Snow Depth Not available.
7:33 AM 6:05 PM
Waxing Crescent, 43% visible
METAR KOZW 141614Z AUTO 17007KT 10SM CLR M10/M18 A3039 RMK AO2 T11021176

10-Day Weather Forecast

Almanac

Astronomy

Feb. 14, 2016 Rise Set
Actual Time
Civil Twilight
Nautical Twilight
Astronomical Twilight
Moon
Length of Visible Light
Length of Day
Tomorrow will be .
, % of the Moon is Illuminated

Today's Extremes

State Highs State Lows

Community

WunderPhotos

Upload Photos

1,892,828 photos uploaded!

WunderBlog® & News

Nearby

Air Quality

  Air Quality AQ Index Pollutant
Not available.

Snow Depth

Station Depth Elevation

Earthquake Activity

City Distance Mag. Time & Date
Minimum magnitude displayed is 2.5.

Coastal Water Temperatures

Place Temperature

Stations

Nearby Weather Stations

Station Location Temp. Windchill Dew Point Humidity Wind Precip. Elev Updated Type
                   

Watches & Warnings

There are currently no watches in effect.